createdAt,value
2023-12-11T00:02:16.653Z,5.40
2023-12-11T00:04:43.948Z,5.32
2023-12-11T00:07:11.273Z,6.20
2023-12-11T00:09:38.544Z,6.50
2023-12-11T00:12:05.889Z,5.65
2023-12-11T00:14:33.095Z,6.43
2023-12-11T00:17:00.839Z,6.53
2023-12-11T00:19:28.014Z,5.13
2023-12-11T00:21:55.417Z,4.23
2023-12-11T00:24:22.653Z,6.00
2023-12-11T00:26:49.834Z,4.25
2023-12-11T00:29:16.695Z,6.63
2023-12-11T00:31:43.935Z,5.80
2023-12-11T00:34:11.340Z,5.93
2023-12-11T00:36:38.675Z,6.25
2023-12-11T00:39:05.500Z,5.53
2023-12-11T00:41:32.817Z,4.93
2023-12-11T00:44:00.048Z,5.30
2023-12-11T00:46:27.304Z,5.10
2023-12-11T00:48:54.765Z,5.45
2023-12-11T00:51:22.435Z,4.38
2023-12-11T00:53:49.782Z,5.07
2023-12-11T00:56:17.076Z,5.70
2023-12-11T00:58:44.722Z,4.40
2023-12-11T01:01:12.235Z,7.40
2023-12-11T01:03:40.033Z,4.65
2023-12-11T01:06:07.609Z,5.10
2023-12-11T01:08:39.654Z,5.63
2023-12-11T01:11:07.620Z,7.33
2023-12-11T01:13:34.880Z,4.50
2023-12-11T01:16:02.212Z,4.10
2023-12-11T01:18:30.039Z,4.68
2023-12-11T01:20:57.168Z,4.93
2023-12-11T01:23:24.440Z,4.53
2023-12-11T01:25:51.655Z,5.38
2023-12-11T01:28:19.742Z,5.28
2023-12-11T01:30:46.714Z,4.15
2023-12-11T01:33:13.629Z,4.07
2023-12-11T01:35:41.262Z,4.80
2023-12-11T01:38:08.583Z,5.82
2023-12-11T01:40:35.852Z,4.30
2023-12-11T01:43:17.784Z,4.10
2023-12-11T01:45:52.270Z,5.00
2023-12-11T01:48:19.679Z,4.97
2023-12-11T01:50:46.985Z,4.72
2023-12-11T01:53:14.352Z,4.57
2023-12-11T01:55:41.737Z,4.13
2023-12-11T01:58:09.277Z,4.32
2023-12-11T02:00:36.738Z,4.57
2023-12-11T02:03:04.129Z,4.45
2023-12-11T02:05:31.714Z,5.18
2023-12-11T02:07:59.914Z,4.65
2023-12-11T02:10:27.343Z,4.63
2023-12-11T02:12:54.756Z,4.93
2023-12-11T02:15:44.147Z,5.30
2023-12-11T02:18:12.901Z,5.35
2023-12-11T02:20:40.922Z,4.38
2023-12-11T02:23:41.938Z,4.80
2023-12-11T02:26:12.581Z,3.57
2023-12-11T02:28:39.830Z,4.53
2023-12-11T02:31:07.424Z,4.18
2023-12-11T02:33:35.124Z,5.18
2023-12-11T02:36:02.765Z,5.15
2023-12-11T02:38:30.052Z,4.83
2023-12-11T02:40:57.386Z,4.35
2023-12-11T02:43:24.733Z,5.00
2023-12-11T02:45:51.620Z,4.15
2023-12-11T02:48:19.589Z,5.00
2023-12-11T02:50:47.048Z,4.13
2023-12-11T02:53:13.866Z,3.88
2023-12-11T02:55:41.187Z,4.32
2023-12-11T02:58:08.690Z,3.38
2023-12-11T03:00:37.250Z,4.82
2023-12-11T03:03:05.102Z,4.70
2023-12-11T03:05:32.695Z,5.05
2023-12-11T03:07:59.912Z,3.30
2023-12-11T03:10:27.326Z,3.05
2023-12-11T03:12:54.595Z,4.10
2023-12-11T03:15:21.899Z,5.63
2023-12-11T03:17:48.892Z,4.68
2023-12-11T03:20:16.237Z,5.32
2023-12-11T03:22:43.716Z,5.22
2023-12-11T03:25:11.078Z,3.92
2023-12-11T03:27:38.378Z,4.93
2023-12-11T03:30:06.004Z,5.07
2023-12-11T03:32:33.172Z,4.53
2023-12-11T03:35:01.232Z,4.35
2023-12-11T03:37:28.363Z,4.40
2023-12-11T03:39:55.852Z,4.70
2023-12-11T03:42:23.201Z,3.83
2023-12-11T03:44:50.827Z,4.80
2023-12-11T03:47:18.706Z,5.70
2023-12-11T03:49:45.895Z,4.35
2023-12-11T03:52:13.312Z,4.67
2023-12-11T03:54:40.747Z,3.83
2023-12-11T03:57:08.037Z,3.83
2023-12-11T03:59:35.419Z,5.78
2023-12-11T04:02:02.896Z,4.22
2023-12-11T04:04:31.483Z,4.30
2023-12-11T04:06:58.851Z,4.40
2023-12-11T04:09:25.681Z,4.90
2023-12-11T04:11:52.880Z,4.05
2023-12-11T04:14:20.319Z,4.55
2023-12-11T04:16:47.336Z,4.70
2023-12-11T04:19:14.433Z,3.80
2023-12-11T04:21:42.052Z,5.18
2023-12-11T04:24:11.818Z,3.47
2023-12-11T04:26:40.510Z,3.67
2023-12-11T04:29:07.781Z,3.10
2023-12-11T04:31:35.032Z,4.35
2023-12-11T04:34:02.446Z,4.90
2023-12-11T04:36:29.871Z,4.72
2023-12-11T04:38:57.081Z,5.00
2023-12-11T04:41:24.335Z,4.37
2023-12-11T04:43:51.552Z,4.35
2023-12-11T04:46:18.923Z,4.85
2023-12-11T04:48:47.105Z,4.97
2023-12-11T04:51:14.857Z,5.22
2023-12-11T04:53:41.748Z,4.47
2023-12-11T04:56:09.730Z,4.13
2023-12-11T04:58:37.020Z,6.30
2023-12-11T05:01:04.449Z,4.47
2023-12-11T05:03:32.051Z,4.60
2023-12-11T05:05:59.395Z,4.60
2023-12-11T05:08:29.043Z,4.53
2023-12-11T05:10:57.611Z,3.60
2023-12-11T05:13:25.092Z,5.25
2023-12-11T05:15:52.539Z,4.50
2023-12-11T05:18:19.994Z,4.33
2023-12-11T05:20:47.393Z,3.67
2023-12-11T05:23:14.663Z,3.72
2023-12-11T05:25:41.914Z,4.80
2023-12-11T05:28:08.803Z,4.20
2023-12-11T05:30:36.140Z,4.63
2023-12-11T05:33:03.868Z,4.53
2023-12-11T05:35:31.172Z,3.95
2023-12-11T05:38:00.779Z,3.67
2023-12-11T05:40:28.081Z,4.22
2023-12-11T05:42:55.426Z,4.23
2023-12-11T05:45:22.700Z,4.97
2023-12-11T05:47:49.683Z,4.22
2023-12-11T05:50:16.853Z,3.70
2023-12-11T05:52:43.878Z,4.03
2023-12-11T05:55:11.305Z,4.93
2023-12-11T05:57:38.435Z,3.78
2023-12-11T06:00:06.754Z,3.58
2023-12-11T06:02:34.144Z,3.95
2023-12-11T06:05:01.497Z,4.68
2023-12-11T06:07:29.046Z,3.80
2023-12-11T06:09:56.635Z,4.47
2023-12-11T06:12:23.996Z,4.72
2023-12-11T06:14:50.802Z,5.65
2023-12-11T06:17:17.892Z,4.25
2023-12-11T06:19:45.388Z,3.77
2023-12-11T06:22:13.062Z,3.65
2023-12-11T06:24:41.385Z,3.35
2023-12-11T06:27:09.345Z,4.55
2023-12-11T06:29:37.209Z,3.40
2023-12-11T06:32:04.713Z,3.37
2023-12-11T06:34:32.256Z,2.90
2023-12-11T06:36:59.282Z,3.50
2023-12-11T06:39:28.076Z,3.80
2023-12-11T06:41:56.837Z,3.25
2023-12-11T06:44:24.996Z,3.07
2023-12-11T06:46:54.089Z,3.72
2023-12-11T06:49:21.791Z,3.00
2023-12-11T06:51:49.309Z,3.00
2023-12-11T06:54:16.645Z,2.97
2023-12-11T06:56:44.004Z,2.53
2023-12-11T06:59:11.254Z,2.70
2023-12-11T07:01:39.023Z,3.60
2023-12-11T07:04:07.008Z,2.85
2023-12-11T07:06:34.507Z,2.97
2023-12-11T07:09:01.908Z,2.80
2023-12-11T07:11:29.187Z,2.75
2023-12-11T07:13:56.825Z,3.45
2023-12-11T07:16:27.293Z,3.28
2023-12-11T07:18:54.827Z,2.85
2023-12-11T07:21:22.511Z,2.80
2023-12-11T07:23:51.256Z,2.88
2023-12-11T07:26:18.575Z,2.65
2023-12-11T07:28:45.883Z,2.28
2023-12-11T07:31:13.316Z,3.03
2023-12-11T07:33:40.824Z,2.73
2023-12-11T07:36:08.354Z,2.15
2023-12-11T07:38:35.618Z,2.97
2023-12-11T07:41:05.434Z,2.72
2023-12-11T07:43:34.386Z,2.30
2023-12-11T07:46:02.300Z,2.47
2023-12-11T07:48:30.393Z,2.42
2023-12-11T07:50:57.939Z,2.38
2023-12-11T07:53:25.229Z,3.42
2023-12-11T07:55:52.523Z,2.60
2023-12-11T07:58:19.870Z,2.20
2023-12-11T08:00:47.339Z,1.80
2023-12-11T08:03:14.772Z,2.90
2023-12-11T08:05:42.191Z,2.35
2023-12-11T08:08:09.850Z,2.53
2023-12-11T08:10:37.331Z,2.90
2023-12-11T08:13:04.747Z,2.20
2023-12-11T08:15:32.052Z,3.05
2023-12-11T08:17:59.334Z,2.42
2023-12-11T08:20:26.731Z,2.53
2023-12-11T08:22:54.035Z,2.90
2023-12-11T08:25:21.405Z,3.35
2023-12-11T08:27:48.703Z,2.53
2023-12-11T08:30:15.949Z,2.15
2023-12-11T08:32:43.366Z,2.63
2023-12-11T08:35:10.932Z,2.20
2023-12-11T08:37:38.661Z,2.33
2023-12-11T08:40:07.209Z,2.35
2023-12-11T08:42:39.290Z,2.42
2023-12-11T08:45:09.358Z,2.60
2023-12-11T08:47:39.412Z,2.47
2023-12-11T08:50:09.072Z,2.03
2023-12-11T08:52:37.895Z,2.53
2023-12-11T08:55:05.545Z,2.42
2023-12-11T08:57:34.410Z,2.22
2023-12-11T09:00:01.897Z,2.50
2023-12-11T09:02:29.141Z,2.15
2023-12-11T09:04:56.656Z,2.65
2023-12-11T09:07:24.027Z,2.85
2023-12-11T09:09:51.493Z,2.45
2023-12-11T09:12:28.085Z,2.70
2023-12-11T09:15:01.254Z,2.25
2023-12-11T09:17:29.598Z,2.55
2023-12-11T09:19:57.217Z,2.42
2023-12-11T09:22:24.897Z,2.40
2023-12-11T09:24:52.517Z,2.37
2023-12-11T09:27:19.890Z,3.10
2023-12-11T09:29:50.672Z,3.15
2023-12-11T09:32:18.646Z,2.83
2023-12-11T09:34:46.233Z,3.35
2023-12-11T09:37:13.602Z,3.70
2023-12-11T09:39:41.123Z,3.55
2023-12-11T09:42:09.263Z,3.90
2023-12-11T09:44:37.375Z,4.00
2023-12-11T09:47:21.036Z,3.03
2023-12-11T09:49:48.596Z,3.53
2023-12-11T09:52:16.122Z,3.90
2023-12-11T09:54:43.589Z,3.58
2023-12-11T09:57:15.977Z,5.20
2023-12-11T09:59:44.049Z,3.10
2023-12-11T10:02:18.010Z,3.63
2023-12-11T10:05:09.797Z,3.55
2023-12-11T10:07:41.836Z,3.05
2023-12-11T10:10:23.846Z,3.75
2023-12-11T10:12:51.387Z,3.80
2023-12-11T10:15:25.519Z,3.67
2023-12-11T10:18:03.571Z,3.70
2023-12-11T10:20:31.484Z,3.08
2023-12-11T10:23:03.201Z,4.07
2023-12-11T10:25:32.131Z,3.35
2023-12-11T10:28:16.569Z,4.77
2023-12-11T10:31:01.270Z,5.50
2023-12-11T10:33:33.141Z,3.47
2023-12-11T10:36:14.606Z,4.45
2023-12-11T10:38:43.487Z,3.42
2023-12-11T10:41:11.156Z,3.47
2023-12-11T10:43:56.591Z,2.75
2023-12-11T10:46:33.048Z,2.30
2023-12-11T10:49:01.655Z,2.42
2023-12-11T10:51:29.865Z,3.15
2023-12-11T10:53:59.109Z,2.37
2023-12-11T10:56:27.228Z,3.13
2023-12-11T10:58:54.800Z,4.20
2023-12-11T11:01:22.612Z,3.03
2023-12-11T11:03:50.858Z,2.70
2023-12-11T11:06:20.613Z,3.10
2023-12-11T11:09:00.791Z,2.40
2023-12-11T11:11:33.075Z,2.70
2023-12-11T11:14:13.730Z,2.13
2023-12-11T11:16:56.983Z,2.20
2023-12-11T11:19:25.650Z,2.30
2023-12-11T11:22:01.572Z,2.42
2023-12-11T11:24:29.899Z,2.40
2023-12-11T11:26:58.143Z,2.10
2023-12-11T11:29:43.356Z,2.40
2023-12-11T11:32:11.293Z,2.97
2023-12-11T11:34:41.244Z,2.80
2023-12-11T11:37:09.015Z,2.78
2023-12-11T11:40:04.779Z,2.47
2023-12-11T11:42:33.397Z,2.85
2023-12-11T11:45:02.330Z,2.93
2023-12-11T11:47:30.806Z,2.95
2023-12-11T11:50:14.338Z,3.20
2023-12-11T11:52:43.289Z,3.53
2023-12-11T11:55:22.180Z,4.05
2023-12-11T11:57:50.451Z,3.70
2023-12-11T12:00:29.285Z,3.00
2023-12-11T12:02:57.697Z,2.88
2023-12-11T12:05:25.089Z,2.60
2023-12-11T12:07:52.473Z,1.98
2023-12-11T12:10:20.280Z,3.60
2023-12-11T12:12:51.392Z,2.45
2023-12-11T12:15:20.616Z,2.95
2023-12-11T12:17:47.963Z,3.55
2023-12-11T12:20:18.097Z,3.67
2023-12-11T12:23:04.820Z,3.90
2023-12-11T12:25:32.553Z,4.30
2023-12-11T12:28:04.052Z,4.97
2023-12-11T12:30:32.006Z,3.67
2023-12-11T12:33:00.196Z,4.88
2023-12-11T12:35:28.211Z,3.73
2023-12-11T12:37:57.065Z,3.20
2023-12-11T12:40:24.563Z,4.57
2023-12-11T12:42:52.057Z,4.25
2023-12-11T12:45:34.290Z,3.95
2023-12-11T12:48:04.483Z,3.37
2023-12-11T12:50:32.116Z,2.78
2023-12-11T12:53:12.005Z,3.42
2023-12-11T12:55:42.381Z,2.53
2023-12-11T12:58:10.335Z,2.72
2023-12-11T13:00:38.493Z,2.23
2023-12-11T13:03:09.355Z,3.40
2023-12-11T13:05:46.932Z,2.50
2023-12-11T13:08:15.881Z,2.58
2023-12-11T13:10:57.000Z,2.72
2023-12-11T13:13:28.025Z,2.80
2023-12-11T13:15:56.503Z,2.72
2023-12-11T13:18:25.945Z,2.28
2023-12-11T13:20:53.424Z,2.10
2023-12-11T13:23:21.414Z,2.72
2023-12-11T13:25:48.960Z,2.67
2023-12-11T13:28:16.262Z,2.47
2023-12-11T13:30:43.752Z,2.35
2023-12-11T13:33:11.624Z,2.60
2023-12-11T13:35:38.965Z,2.90
2023-12-11T13:38:06.375Z,2.57
2023-12-11T13:40:33.687Z,2.92
2023-12-11T13:43:01.036Z,3.22
2023-12-11T13:45:28.775Z,3.15
2023-12-11T13:47:56.138Z,3.20
2023-12-11T13:50:23.565Z,2.53
2023-12-11T13:52:51.213Z,3.00
2023-12-11T13:55:18.945Z,3.17
2023-12-11T13:57:46.849Z,2.88
2023-12-11T14:00:16.544Z,2.78
2023-12-11T14:03:00.316Z,2.73
2023-12-11T14:05:32.259Z,3.40
2023-12-11T14:08:00.311Z,3.63
2023-12-11T14:10:28.404Z,3.60
2023-12-11T14:12:55.525Z,2.90
2023-12-11T14:15:22.350Z,3.60
2023-12-11T14:17:49.648Z,3.22
2023-12-11T14:20:17.462Z,4.15
2023-12-11T14:22:44.770Z,2.90
2023-12-11T14:25:13.148Z,3.30
2023-12-11T14:27:40.524Z,2.63
2023-12-11T14:30:08.255Z,3.88
2023-12-11T14:32:36.487Z,4.03
2023-12-11T14:35:04.091Z,3.47
2023-12-11T14:37:31.442Z,3.40
2023-12-11T14:39:58.842Z,3.07
2023-12-11T14:42:28.127Z,3.63
2023-12-11T14:44:55.874Z,3.42
2023-12-11T14:47:25.005Z,4.13
2023-12-11T14:49:52.727Z,4.40
2023-12-11T14:52:19.709Z,4.60
2023-12-11T14:54:47.018Z,4.07
2023-12-11T14:57:14.331Z,5.05
2023-12-11T14:59:41.768Z,3.60
2023-12-11T15:02:10.824Z,3.17
2023-12-11T15:04:38.165Z,3.07
2023-12-11T15:07:06.413Z,4.13
2023-12-11T15:09:35.867Z,4.40
2023-12-11T15:12:03.161Z,3.60
2023-12-11T15:14:32.523Z,3.53
2023-12-11T15:17:00.338Z,3.63
2023-12-11T15:19:28.238Z,3.22
2023-12-11T15:21:55.608Z,3.20
2023-12-11T15:24:22.897Z,3.65
2023-12-11T15:26:50.934Z,3.70
2023-12-11T15:29:18.368Z,3.33
2023-12-11T15:31:45.654Z,3.40
2023-12-11T15:34:13.125Z,4.03
2023-12-11T15:36:40.408Z,3.50
2023-12-11T15:39:09.210Z,3.30
2023-12-11T15:41:36.154Z,3.50
2023-12-11T15:44:05.310Z,4.38
2023-12-11T15:46:32.847Z,3.88
2023-12-11T15:49:01.256Z,3.35
2023-12-11T15:51:28.774Z,4.82
2023-12-11T15:53:56.065Z,5.40
2023-12-11T15:56:23.406Z,5.28
2023-12-11T15:58:50.876Z,5.43
2023-12-11T16:01:18.240Z,5.07
2023-12-11T16:03:45.684Z,4.05
2023-12-11T16:06:13.097Z,4.07
2023-12-11T16:08:40.368Z,6.45
2023-12-11T16:11:07.752Z,3.90
2023-12-11T16:13:35.590Z,4.30
2023-12-11T16:16:03.785Z,4.63
2023-12-11T16:18:30.734Z,5.47
2023-12-11T16:20:59.251Z,7.60
2023-12-11T16:23:26.741Z,5.88
2023-12-11T16:26:00.260Z,5.35
2023-12-11T16:28:32.686Z,4.05
2023-12-11T16:31:00.307Z,5.10
2023-12-11T16:33:28.126Z,4.72
2023-12-11T16:35:54.955Z,5.22
2023-12-11T16:38:23.335Z,6.15
2023-12-11T16:40:50.676Z,6.30
2023-12-11T16:43:19.037Z,4.87
2023-12-11T16:45:46.263Z,6.30
2023-12-11T16:48:13.953Z,5.68
2023-12-11T16:50:44.555Z,5.07
2023-12-11T16:53:11.559Z,5.35
2023-12-11T16:55:39.788Z,6.70
2023-12-11T16:58:08.033Z,6.28
2023-12-11T17:00:35.664Z,5.70
2023-12-11T17:03:03.053Z,6.25
2023-12-11T17:05:30.409Z,5.85
2023-12-11T17:07:58.944Z,4.37
2023-12-11T17:10:26.671Z,5.88
2023-12-11T17:12:54.084Z,5.88
2023-12-11T17:15:21.334Z,8.75
2023-12-11T17:17:48.673Z,8.45
2023-12-11T17:20:16.010Z,5.40
2023-12-11T17:22:43.397Z,11.02
2023-12-11T17:25:10.717Z,8.38
2023-12-11T17:27:38.036Z,10.27
2023-12-11T17:30:05.509Z,6.47
2023-12-11T17:32:33.317Z,9.23
2023-12-11T17:35:02.796Z,10.15
2023-12-11T17:37:30.412Z,6.72
2023-12-11T17:39:57.590Z,10.75
2023-12-11T17:42:27.156Z,11.35
2023-12-11T17:44:54.560Z,8.93
2023-12-11T17:47:21.971Z,8.18
2023-12-11T17:49:49.486Z,8.65
2023-12-11T17:52:16.991Z,9.40
2023-12-11T17:54:46.008Z,10.45
2023-12-11T17:57:13.264Z,8.87
2023-12-11T17:59:43.084Z,6.10
2023-12-11T18:02:11.261Z,7.32
2023-12-11T18:04:40.011Z,9.40
2023-12-11T18:07:07.723Z,7.18
2023-12-11T18:09:37.452Z,14.63
2023-12-11T18:12:05.707Z,9.23
2023-12-11T18:14:32.999Z,11.93
2023-12-11T18:17:00.255Z,6.03
2023-12-11T18:19:27.596Z,8.93
2023-12-11T18:21:56.770Z,7.83
2023-12-11T18:24:24.204Z,7.22
2023-12-11T18:26:51.411Z,9.77
2023-12-11T18:29:19.044Z,10.48
2023-12-11T18:31:46.318Z,7.57
2023-12-11T18:34:14.042Z,10.83
2023-12-11T18:36:44.807Z,9.50
2023-12-11T18:39:16.281Z,5.97
2023-12-11T18:41:43.783Z,8.60
2023-12-11T18:44:11.116Z,6.45
2023-12-11T18:46:39.484Z,12.37
2023-12-11T18:49:06.846Z,7.95
2023-12-11T18:51:33.746Z,9.75
2023-12-11T18:54:01.085Z,7.10
2023-12-11T18:56:28.402Z,6.15
2023-12-11T18:58:55.276Z,10.77
2023-12-11T19:01:22.459Z,10.18
2023-12-11T19:03:50.428Z,14.13
2023-12-11T19:06:18.139Z,6.70
2023-12-11T19:08:45.691Z,7.60
2023-12-11T19:11:13.672Z,7.67
2023-12-11T19:13:41.036Z,7.22
2023-12-11T19:16:09.321Z,6.32
2023-12-11T19:18:37.259Z,6.28
2023-12-11T19:21:04.615Z,7.55
2023-12-11T19:23:31.904Z,5.27
2023-12-11T19:25:59.855Z,7.03
2023-12-11T19:28:27.357Z,6.97
2023-12-11T19:30:54.850Z,6.50
2023-12-11T19:33:22.215Z,5.72
2023-12-11T19:35:50.822Z,14.60
2023-12-11T19:38:18.349Z,5.65
2023-12-11T19:40:45.633Z,5.70
2023-12-11T19:43:13.386Z,5.47
2023-12-11T19:45:40.397Z,5.45
2023-12-11T19:48:07.902Z,6.07
2023-12-11T19:50:35.175Z,5.50
2023-12-11T19:53:02.450Z,5.88
2023-12-11T19:55:29.790Z,6.55
2023-12-11T19:57:57.178Z,7.03
2023-12-11T20:00:24.417Z,6.37
2023-12-11T20:02:52.286Z,9.32
2023-12-11T20:05:19.809Z,6.93
2023-12-11T20:07:47.483Z,8.48
2023-12-11T20:10:16.532Z,7.22
2023-12-11T20:12:43.782Z,7.50
2023-12-11T20:15:12.049Z,7.70
2023-12-11T20:17:40.083Z,7.97
2023-12-11T20:20:10.485Z,8.60
2023-12-11T20:22:37.754Z,9.05
2023-12-11T20:25:05.350Z,8.70
2023-12-11T20:27:32.804Z,10.10
2023-12-11T20:30:00.542Z,10.75
2023-12-11T20:32:28.029Z,9.35
2023-12-11T20:34:55.278Z,11.38
2023-12-11T20:37:22.572Z,12.23
2023-12-11T20:39:49.412Z,11.63
2023-12-11T20:42:18.212Z,13.27
2023-12-11T20:44:45.461Z,12.10
2023-12-11T20:47:12.339Z,12.02
2023-12-11T20:49:39.695Z,9.70
2023-12-11T20:52:06.894Z,9.75
2023-12-11T20:54:34.287Z,11.25
2023-12-11T20:57:01.522Z,10.38
2023-12-11T20:59:28.773Z,11.20
2023-12-11T21:01:56.377Z,9.97
2023-12-11T21:04:23.848Z,8.88
2023-12-11T21:06:51.115Z,9.10
2023-12-11T21:09:18.454Z,11.10
2023-12-11T21:11:45.845Z,9.75
2023-12-11T21:14:13.181Z,9.23
2023-12-11T21:16:41.283Z,10.15
2023-12-11T21:19:08.752Z,7.68
2023-12-11T21:21:36.907Z,9.00
2023-12-11T21:24:04.303Z,7.30
2023-12-11T21:26:32.106Z,6.97
2023-12-11T21:29:00.402Z,7.20
2023-12-11T21:31:32.560Z,6.05
2023-12-11T21:34:00.452Z,5.68
2023-12-11T21:36:31.125Z,6.75
2023-12-11T21:38:58.941Z,5.73
2023-12-11T21:41:26.194Z,6.22
2023-12-11T21:43:53.904Z,5.20
2023-12-11T21:46:21.393Z,5.88
2023-12-11T21:48:49.972Z,5.30
2023-12-11T21:51:18.922Z,5.57
2023-12-11T21:53:47.504Z,5.18
2023-12-11T21:56:15.028Z,5.43
2023-12-11T21:58:42.514Z,4.70
2023-12-11T22:01:10.128Z,4.88
2023-12-11T22:03:37.296Z,4.80
2023-12-11T22:06:04.594Z,5.13
2023-12-11T22:08:31.908Z,5.15
2023-12-11T22:10:59.192Z,4.70
2023-12-11T22:13:26.616Z,4.53
2023-12-11T22:15:53.680Z,5.70
2023-12-11T22:18:20.836Z,4.63
2023-12-11T22:20:48.260Z,5.57
2023-12-11T22:23:15.213Z,5.18
2023-12-11T22:25:42.519Z,4.32
2023-12-11T22:28:09.844Z,4.70
2023-12-11T22:30:37.130Z,4.45
2023-12-11T22:33:04.613Z,4.20
2023-12-11T22:35:31.842Z,4.00
2023-12-11T22:37:59.249Z,4.43
2023-12-11T22:40:26.507Z,4.10
2023-12-11T22:42:53.858Z,3.63
2023-12-11T22:45:22.646Z,3.60
2023-12-11T22:47:50.277Z,4.10
2023-12-11T22:50:17.763Z,4.03
2023-12-11T22:52:45.148Z,4.20
2023-12-11T22:55:12.535Z,3.80
2023-12-11T22:57:41.329Z,3.80
2023-12-11T23:00:11.881Z,4.00
2023-12-11T23:02:38.891Z,3.67
2023-12-11T23:05:06.263Z,4.00
2023-12-11T23:07:34.427Z,4.40
2023-12-11T23:10:02.227Z,3.83
2023-12-11T23:12:29.520Z,4.38
2023-12-11T23:14:56.374Z,3.97
2023-12-11T23:17:23.700Z,3.57
2023-12-11T23:19:51.168Z,3.90
2023-12-11T23:22:18.684Z,4.28
2023-12-11T23:24:46.172Z,6.55
2023-12-11T23:27:13.428Z,4.43
2023-12-11T23:29:42.177Z,3.63
2023-12-11T23:32:13.052Z,3.60
2023-12-11T23:34:40.331Z,3.38
2023-12-11T23:37:07.710Z,4.22
2023-12-11T23:39:35.240Z,3.65
2023-12-11T23:42:02.537Z,4.33
2023-12-11T23:44:30.277Z,3.60
2023-12-11T23:46:57.532Z,3.47
2023-12-11T23:49:24.921Z,3.83
2023-12-11T23:51:52.263Z,3.80
2023-12-11T23:54:19.568Z,3.53
2023-12-11T23:56:46.886Z,3.85
2023-12-11T23:59:14.133Z,3.50
